createdAt,value
2017-07-02T00:00:23.862Z,1006.1
2017-07-02T00:01:45.333Z,1006.1
2017-07-02T00:02:46.704Z,1006.1
2017-07-02T00:04:08.171Z,1006.1
2017-07-02T00:05:09.545Z,1006.1
2017-07-02T00:06:31.034Z,1006.1
2017-07-02T00:07:32.410Z,1006.2
2017-07-02T00:08:53.879Z,1006.1
2017-07-02T00:09:55.251Z,1006.2
2017-07-02T00:11:16.720Z,1006.2
2017-07-02T00:12:18.094Z,1006.2
2017-07-02T00:13:39.627Z,1006.2
2017-07-02T00:14:40.962Z,1006.2
2017-07-02T00:16:02.429Z,1006.1
2017-07-02T00:17:03.802Z,1006.1
2017-07-02T00:18:25.274Z,1006.1
2017-07-02T00:19:26.647Z,1006.1
2017-07-02T00:20:48.143Z,1006.2
2017-07-02T00:21:49.517Z,1006.1
2017-07-02T00:23:10.985Z,1006.1
2017-07-02T00:24:12.359Z,1006.2
2017-07-02T00:25:33.829Z,1006.2
2017-07-02T00:26:35.205Z,1006.2
2017-07-02T00:27:56.682Z,1006.1
2017-07-02T00:28:58.056Z,1006.2
2017-07-02T00:30:19.527Z,1006.2
2017-07-02T00:31:20.903Z,1006.2
2017-07-02T00:32:42.371Z,1006.2
2017-07-02T00:33:43.745Z,1006.2
2017-07-02T00:35:05.248Z,1006.1
2017-07-02T00:36:06.622Z,1006.2
2017-07-02T00:37:28.130Z,1006.1
2017-07-02T00:38:29.502Z,1006.2
2017-07-02T00:39:51.070Z,1006.1
2017-07-02T00:40:52.445Z,1006.1
2017-07-02T00:42:14.040Z,1006.1
2017-07-02T00:43:15.413Z,1006.1
2017-07-02T00:44:36.973Z,1006.1
2017-07-02T00:45:38.350Z,1006.1
2017-07-02T00:46:59.920Z,1006.1
2017-07-02T00:48:01.295Z,1006.1
2017-07-02T00:49:22.796Z,1006.1
2017-07-02T00:50:24.169Z,1006.1
2017-07-02T00:51:45.723Z,1006.2
2017-07-02T00:52:47.095Z,1006.2
2017-07-02T00:54:08.670Z,1006.2
2017-07-02T00:55:10.047Z,1006.1
2017-07-02T00:56:31.549Z,1006.2
2017-07-02T00:57:32.919Z,1006.2
2017-07-02T00:58:54.476Z,1006.2
2017-07-02T00:59:55.851Z,1006.2
2017-07-02T01:01:17.425Z,1006.2
2017-07-02T01:02:18.800Z,1006.2
2017-07-02T01:03:40.400Z,1006.2
2017-07-02T01:04:41.775Z,1006.2
2017-07-02T01:06:03.242Z,1006.2
2017-07-02T01:07:04.615Z,1006.2
2017-07-02T01:08:26.174Z,1006.2
2017-07-02T01:09:27.549Z,1006.3
2017-07-02T01:10:49.151Z,1006.3
2017-07-02T01:11:50.526Z,1006.3
2017-07-02T01:13:11.998Z,1006.4
2017-07-02T01:14:13.367Z,1006.3
2017-07-02T01:15:34.836Z,1006.3
2017-07-02T01:16:36.209Z,1006.3
2017-07-02T01:17:57.795Z,1006.3
2017-07-02T01:18:59.164Z,1006.3
2017-07-02T01:20:20.735Z,1006.3
2017-07-02T01:21:22.108Z,1006.3
2017-07-02T01:22:43.581Z,1006.3
2017-07-02T01:23:44.951Z,1006.3
2017-07-02T01:25:06.431Z,1006.3
2017-07-02T01:26:07.806Z,1006.3
2017-07-02T01:27:29.277Z,1006.4
2017-07-02T01:28:30.646Z,1006.3
2017-07-02T01:29:52.117Z,1006.3
2017-07-02T01:30:53.488Z,1006.4
2017-07-02T01:32:14.979Z,1006.3
2017-07-02T01:33:16.356Z,1006.4
2017-07-02T01:34:37.823Z,1006.4
2017-07-02T01:35:39.198Z,1006.4
2017-07-02T01:37:00.664Z,1006.3
2017-07-02T01:38:02.039Z,1006.3
2017-07-02T01:39:23.519Z,1006.3
2017-07-02T01:40:24.894Z,1006.4
2017-07-02T01:41:46.362Z,1006.3
2017-07-02T01:42:47.738Z,1006.3
2017-07-02T01:44:09.204Z,1006.3
2017-07-02T01:45:10.577Z,1006.3
2017-07-02T01:46:32.114Z,1006.3
2017-07-02T01:47:33.486Z,1006.3
2017-07-02T01:48:55.040Z,1006.3
2017-07-02T01:49:56.417Z,1006.3
2017-07-02T01:51:17.991Z,1006.2
2017-07-02T01:52:19.366Z,1006.2
2017-07-02T01:53:40.954Z,1006.2
2017-07-02T01:54:42.330Z,1006.2
2017-07-02T01:56:03.896Z,1006.2
2017-07-02T01:57:05.269Z,1006.2
2017-07-02T01:58:26.752Z,1006.2
2017-07-02T01:59:28.128Z,1006.2
2017-07-02T02:00:49.724Z,1006.2
2017-07-02T02:01:51.100Z,1006.2
2017-07-02T02:03:12.652Z,1006.2
2017-07-02T02:04:14.027Z,1006.2
2017-07-02T02:05:35.602Z,1006.1
2017-07-02T02:06:36.981Z,1006.1
2017-07-02T02:07:58.464Z,1006.1
2017-07-02T02:08:59.841Z,1006.1
2017-07-02T02:10:21.417Z,1006.1
2017-07-02T02:11:22.792Z,1006.1
2017-07-02T02:12:44.367Z,1006.2
2017-07-02T02:13:45.741Z,1006.2
2017-07-02T02:15:07.351Z,1006.1
2017-07-02T02:16:08.722Z,1006.2
2017-07-02T02:17:30.272Z,1006.1
2017-07-02T02:18:31.648Z,1006.2
2017-07-02T02:19:53.222Z,1006.1
2017-07-02T02:20:54.597Z,1006.2
2017-07-02T02:22:16.115Z,1006.1
2017-07-02T02:23:17.488Z,1006.1
2017-07-02T02:24:39.030Z,1006.1
2017-07-02T02:25:40.405Z,1006.1
2017-07-02T02:27:01.980Z,1006.1
2017-07-02T02:28:03.354Z,1006.1
2017-07-02T02:29:24.854Z,1006.2
2017-07-02T02:30:26.228Z,1006.1
2017-07-02T02:31:47.815Z,1006.1
2017-07-02T02:32:49.189Z,1006.1
2017-07-02T02:34:10.741Z,1006.1
2017-07-02T02:35:12.114Z,1006.1
2017-07-02T02:36:33.625Z,1006.1
2017-07-02T02:37:34.998Z,1006.1
2017-07-02T02:38:56.546Z,1006.1
2017-07-02T02:39:57.921Z,1006.1
2017-07-02T02:41:19.496Z,1006.1
2017-07-02T02:42:20.873Z,1006.1
2017-07-02T02:43:42.469Z,1006.1
2017-07-02T02:44:43.843Z,1006.1
2017-07-02T02:46:05.379Z,1006.1
2017-07-02T02:47:06.756Z,1006.2
2017-07-02T02:48:28.226Z,1006.1
2017-07-02T02:49:29.600Z,1006.1
2017-07-02T02:50:51.204Z,1006.1
2017-07-02T02:51:52.575Z,1006.1
2017-07-02T02:53:14.131Z,1006.2
2017-07-02T02:54:15.503Z,1006.1
2017-07-02T02:55:37.075Z,1006.1
2017-07-02T02:56:38.452Z,1006.2
2017-07-02T02:58:00.035Z,1006.1
2017-07-02T02:59:01.410Z,1006.1
2017-07-02T03:00:22.981Z,1006.1
2017-07-02T03:01:24.354Z,1006.1
2017-07-02T03:02:45.853Z,1006.2
2017-07-02T03:03:47.231Z,1006.1
2017-07-02T03:05:08.808Z,1006.2
2017-07-02T03:06:10.191Z,1006.2
2017-07-02T03:07:31.733Z,1006.1
2017-07-02T03:08:33.106Z,1006.2
2017-07-02T03:09:54.680Z,1006.2
2017-07-02T03:10:56.052Z,1006.2
2017-07-02T03:12:17.546Z,1006.2
2017-07-02T03:13:18.921Z,1006.2
2017-07-02T03:14:40.486Z,1006.2
2017-07-02T03:15:41.863Z,1006.2
2017-07-02T03:17:03.434Z,1006.2
2017-07-02T03:18:04.810Z,1006.2
2017-07-02T03:19:26.393Z,1006.2
2017-07-02T03:20:27.766Z,1006.2
2017-07-02T03:21:49.337Z,1006.2
2017-07-02T03:22:50.714Z,1006.2
2017-07-02T03:24:12.289Z,1006.3
2017-07-02T03:25:13.664Z,1006.3
2017-07-02T03:26:35.270Z,1006.3
2017-07-02T03:27:36.645Z,1006.2
2017-07-02T03:28:58.228Z,1006.2
2017-07-02T03:29:59.576Z,1006.2
2017-07-02T03:31:21.142Z,1006.2
2017-07-02T03:32:22.517Z,1006.2
2017-07-02T03:33:44.113Z,1006.2
2017-07-02T03:34:45.486Z,1006.2
2017-07-02T03:36:07.048Z,1006.2
2017-07-02T03:37:08.421Z,1006.2
2017-07-02T03:38:29.992Z,1006.2
2017-07-02T03:39:31.367Z,1006.3
2017-07-02T03:40:52.860Z,1006.2
2017-07-02T03:41:54.234Z,1006.2
2017-07-02T03:43:15.799Z,1006.2
2017-07-02T03:44:17.172Z,1006.2
2017-07-02T03:45:38.744Z,1006.2
2017-07-02T03:46:40.119Z,1006.3
2017-07-02T03:48:01.609Z,1006.3
2017-07-02T03:49:02.985Z,1006.3
2017-07-02T03:50:24.548Z,1006.2
2017-07-02T03:51:25.924Z,1006.3
2017-07-02T03:52:47.494Z,1006.2
2017-07-02T03:53:48.872Z,1006.2
2017-07-02T03:55:10.469Z,1006.2
2017-07-02T03:56:11.842Z,1006.2
2017-07-02T03:57:33.402Z,1006.3
2017-07-02T03:58:34.775Z,1006.2
2017-07-02T03:59:56.351Z,1006.2
2017-07-02T04:00:57.727Z,1006.2
2017-07-02T04:02:19.326Z,1006.2
2017-07-02T04:03:20.702Z,1006.2
2017-07-02T04:04:42.257Z,1006.2
2017-07-02T04:05:43.633Z,1006.2
2017-07-02T04:07:05.206Z,1006.2
2017-07-02T04:08:06.582Z,1006.3
2017-07-02T04:09:28.184Z,1006.3
2017-07-02T04:10:29.559Z,1006.2
2017-07-02T04:11:51.111Z,1006.3
2017-07-02T04:12:52.487Z,1006.2
2017-07-02T04:14:14.060Z,1006.2
2017-07-02T04:15:15.438Z,1006.3
2017-07-02T04:16:37.030Z,1006.2
2017-07-02T04:17:38.403Z,1006.2
2017-07-02T04:18:59.961Z,1006.2
2017-07-02T04:20:01.338Z,1006.2
2017-07-02T04:21:22.913Z,1006.2
2017-07-02T04:22:24.292Z,1006.2
2017-07-02T04:23:45.889Z,1006.2
2017-07-02T04:24:47.264Z,1006.2
2017-07-02T04:26:08.821Z,1006.3
2017-07-02T04:27:10.197Z,1006.2
2017-07-02T04:28:31.770Z,1006.2
2017-07-02T04:29:33.155Z,1006.2
2017-07-02T04:30:54.641Z,1006.3
2017-07-02T04:31:56.015Z,1006.3
2017-07-02T04:33:17.483Z,1006.3
2017-07-02T04:34:18.859Z,1006.3
2017-07-02T04:35:40.428Z,1006.3
2017-07-02T04:36:41.809Z,1006.2
2017-07-02T04:38:03.394Z,1006.3
2017-07-02T04:39:04.768Z,1006.3
2017-07-02T04:40:26.240Z,1006.3
2017-07-02T04:41:27.612Z,1006.3
2017-07-02T04:42:49.082Z,1006.2
2017-07-02T04:43:50.456Z,1006.3
2017-07-02T04:45:12.045Z,1006.2
2017-07-02T04:46:13.424Z,1006.2
2017-07-02T04:47:34.989Z,1006.2
2017-07-02T04:48:36.369Z,1006.2
2017-07-02T04:49:57.941Z,1006.2
2017-07-02T04:50:59.312Z,1006.2
2017-07-02T04:52:20.917Z,1006.2
2017-07-02T04:53:22.293Z,1006.2
2017-07-02T04:54:43.848Z,1006.2
2017-07-02T04:55:45.226Z,1006.1
2017-07-02T04:57:06.796Z,1006.2
2017-07-02T04:58:08.174Z,1006.2
2017-07-02T04:59:29.778Z,1006.2
2017-07-02T05:00:31.153Z,1006.1
2017-07-02T05:01:52.713Z,1006.2
2017-07-02T05:02:54.090Z,1006.1
2017-07-02T05:04:15.660Z,1006.1
2017-07-02T05:05:17.038Z,1006.1
2017-07-02T05:06:38.535Z,1006.2
2017-07-02T05:07:39.976Z,1006.2
2017-07-02T05:09:01.480Z,1006.1
2017-07-02T05:10:02.859Z,1006.1
2017-07-02T05:11:24.413Z,1006.1
2017-07-02T05:12:25.789Z,1006.1
2017-07-02T05:13:47.287Z,1006.1
2017-07-02T05:14:48.660Z,1006.1
2017-07-02T05:16:10.134Z,1006.1
2017-07-02T05:17:11.511Z,1006.1
2017-07-02T05:18:33.010Z,1006.1
2017-07-02T05:19:34.384Z,1006.1
2017-07-02T05:20:55.883Z,1006.1
2017-07-02T05:21:57.260Z,1006.0
2017-07-02T05:23:18.733Z,1006.0
2017-07-02T05:24:20.110Z,1006.0
2017-07-02T05:25:41.621Z,1006.0
2017-07-02T05:26:42.996Z,1006.0
2017-07-02T05:28:04.578Z,1006.0
2017-07-02T05:29:05.958Z,1006.0
2017-07-02T05:30:27.530Z,1006.0
2017-07-02T05:31:28.916Z,1006.1
2017-07-02T05:32:50.484Z,1006.1
2017-07-02T05:33:51.862Z,1006.1
2017-07-02T05:35:13.442Z,1006.1
2017-07-02T05:36:14.818Z,1006.1
2017-07-02T05:37:36.370Z,1006.1
2017-07-02T05:38:37.745Z,1006.1
2017-07-02T05:39:59.240Z,1006.2
2017-07-02T05:41:00.617Z,1006.1
2017-07-02T05:42:22.201Z,1006.2
2017-07-02T05:43:23.578Z,1006.2
2017-07-02T05:44:45.139Z,1006.1
2017-07-02T05:45:46.516Z,1006.1
2017-07-02T05:47:08.100Z,1006.2
2017-07-02T05:48:09.470Z,1006.2
2017-07-02T05:49:31.074Z,1006.1
2017-07-02T05:50:32.445Z,1006.2
2017-07-02T05:51:53.919Z,1006.2
2017-07-02T05:52:55.301Z,1006.2
2017-07-02T05:54:16.765Z,1006.2
2017-07-02T05:55:18.140Z,1006.2
2017-07-02T05:56:39.636Z,1006.2
2017-07-02T05:57:41.010Z,1006.1
2017-07-02T05:59:02.502Z,1006.2
2017-07-02T06:00:03.881Z,1006.2
2017-07-02T06:01:25.455Z,1006.2
2017-07-02T06:02:26.837Z,1006.3
2017-07-02T06:03:48.450Z,1006.3
2017-07-02T06:04:49.793Z,1006.3
2017-07-02T06:06:11.357Z,1006.3
2017-07-02T06:07:12.733Z,1006.3
2017-07-02T06:08:34.311Z,1006.3
2017-07-02T06:09:35.688Z,1006.3
2017-07-02T06:10:57.288Z,1006.3
2017-07-02T06:11:58.665Z,1006.3
2017-07-02T06:13:20.214Z,1006.3
2017-07-02T06:14:21.588Z,1006.3
2017-07-02T06:15:43.161Z,1006.3
2017-07-02T06:16:44.541Z,1006.3
2017-07-02T06:18:06.123Z,1006.3
2017-07-02T06:19:07.499Z,1006.4
2017-07-02T06:20:29.065Z,1006.3
2017-07-02T06:21:30.442Z,1006.4
2017-07-02T06:22:52.015Z,1006.4
2017-07-02T06:23:53.392Z,1006.4
2017-07-02T06:25:15.000Z,1006.4
2017-07-02T06:26:16.378Z,1006.4
2017-07-02T06:27:37.917Z,1006.3
2017-07-02T06:28:39.293Z,1006.3
2017-07-02T06:30:00.865Z,1006.3
2017-07-02T06:31:02.245Z,1006.4
2017-07-02T06:32:24.021Z,1006.4
2017-07-02T06:33:25.409Z,1006.4
2017-07-02T06:34:46.876Z,1006.4
2017-07-02T06:35:48.557Z,1006.4
2017-07-02T06:37:10.027Z,1006.4
2017-07-02T06:38:11.403Z,1006.5
2017-07-02T06:39:33.001Z,1006.4
2017-07-02T06:40:34.378Z,1006.4
2017-07-02T06:41:55.851Z,1006.5
2017-07-02T06:42:57.226Z,1006.5
2017-07-02T06:44:18.782Z,1006.6
2017-07-02T06:45:20.163Z,1006.6
2017-07-02T06:46:41.746Z,1006.5
2017-07-02T06:47:43.123Z,1006.6
2017-07-02T06:49:04.685Z,1006.5
2017-07-02T06:50:06.063Z,1006.5
2017-07-02T06:51:27.633Z,1006.6
2017-07-02T06:52:29.010Z,1006.6
2017-07-02T06:53:50.593Z,1006.6
2017-07-02T06:54:51.970Z,1006.6
2017-07-02T06:56:13.538Z,1006.6
2017-07-02T06:57:14.916Z,1006.6
2017-07-02T06:58:36.489Z,1006.6
2017-07-02T06:59:37.867Z,1006.6
2017-07-02T07:00:59.347Z,1006.7
2017-07-02T07:02:00.721Z,1006.6
2017-07-02T07:03:22.192Z,1006.7
2017-07-02T07:04:23.567Z,1006.7
2017-07-02T07:05:45.039Z,1006.6
2017-07-02T07:06:46.413Z,1006.6
2017-07-02T07:08:07.900Z,1006.6
2017-07-02T07:09:09.278Z,1006.7
2017-07-02T07:10:30.746Z,1006.7
2017-07-02T07:11:32.121Z,1006.7
2017-07-02T07:12:53.593Z,1006.7
2017-07-02T07:13:54.968Z,1006.7
2017-07-02T07:15:16.478Z,1006.7
2017-07-02T07:16:17.855Z,1006.8
2017-07-02T07:17:39.325Z,1006.7
2017-07-02T07:18:40.702Z,1006.8
2017-07-02T07:20:02.178Z,1006.8
2017-07-02T07:21:03.553Z,1006.8
2017-07-02T07:22:25.036Z,1006.8
2017-07-02T07:23:26.413Z,1006.8
2017-07-02T07:24:47.884Z,1006.8
2017-07-02T07:25:49.259Z,1006.8
2017-07-02T07:27:10.732Z,1006.8
2017-07-02T07:28:12.113Z,1006.8
2017-07-02T07:29:33.587Z,1006.8
2017-07-02T07:30:34.980Z,1006.9
2017-07-02T07:31:56.453Z,1006.8
2017-07-02T07:32:57.833Z,1006.8
2017-07-02T07:34:19.318Z,1006.8
2017-07-02T07:35:20.689Z,1006.8
2017-07-02T07:36:42.180Z,1006.9
2017-07-02T07:37:43.559Z,1006.9
2017-07-02T07:39:05.031Z,1006.8
2017-07-02T07:40:06.403Z,1006.8
2017-07-02T07:41:27.875Z,1006.8
2017-07-02T07:42:29.254Z,1006.8
2017-07-02T07:43:50.762Z,1006.9
2017-07-02T07:44:52.134Z,1006.9
2017-07-02T07:46:13.608Z,1006.9
2017-07-02T07:47:14.986Z,1006.9
2017-07-02T07:48:36.461Z,1006.9
2017-07-02T07:49:37.835Z,1006.9
2017-07-02T07:50:59.316Z,1006.9
2017-07-02T07:52:00.694Z,1006.9
2017-07-02T07:53:22.167Z,1007.0
2017-07-02T07:54:23.541Z,1007.0
2017-07-02T07:55:45.104Z,1007.0
2017-07-02T07:56:46.480Z,1007.0
2017-07-02T07:58:08.069Z,1007.0
2017-07-02T07:59:09.445Z,1007.0
2017-07-02T08:00:30.916Z,1007.0
2017-07-02T08:01:32.290Z,1007.1
2017-07-02T08:02:53.761Z,1007.1
2017-07-02T08:03:55.135Z,1007.1
2017-07-02T08:05:16.631Z,1007.1
2017-07-02T08:06:18.806Z,1007.1
2017-07-02T08:07:40.278Z,1007.0
2017-07-02T08:08:41.668Z,1007.1
2017-07-02T08:10:03.129Z,1007.1
2017-07-02T08:11:04.507Z,1007.1
2017-07-02T08:12:25.996Z,1007.0
2017-07-02T08:13:27.374Z,1007.0
2017-07-02T08:14:48.847Z,1007.0
2017-07-02T08:15:50.221Z,1007.0
2017-07-02T08:17:11.692Z,1007.1
2017-07-02T08:18:13.070Z,1007.0
2017-07-02T08:19:34.551Z,1007.1
2017-07-02T08:20:35.928Z,1007.0
2017-07-02T08:21:57.422Z,1007.1
2017-07-02T08:22:58.795Z,1007.1
2017-07-02T08:24:20.334Z,1007.1
2017-07-02T08:25:21.712Z,1007.1
2017-07-02T08:26:43.307Z,1007.1
2017-07-02T08:27:44.687Z,1007.1
2017-07-02T08:29:06.245Z,1007.1
2017-07-02T08:30:07.618Z,1007.2
2017-07-02T08:31:29.196Z,1007.1
2017-07-02T08:32:30.573Z,1007.1
2017-07-02T08:33:52.074Z,1007.1
2017-07-02T08:34:53.454Z,1007.1
2017-07-02T08:36:14.927Z,1007.2
2017-07-02T08:37:16.305Z,1007.2
2017-07-02T08:38:37.780Z,1007.2
2017-07-02T08:39:39.162Z,1007.2
2017-07-02T08:41:00.654Z,1007.2
2017-07-02T08:42:02.030Z,1007.2
2017-07-02T08:43:23.552Z,1007.3
2017-07-02T08:44:24.928Z,1007.3
2017-07-02T08:45:46.505Z,1007.3
2017-07-02T08:46:47.883Z,1007.3
2017-07-02T08:48:09.470Z,1007.3
2017-07-02T08:49:10.847Z,1007.3
2017-07-02T08:50:32.315Z,1007.3
2017-07-02T08:51:33.695Z,1007.3
2017-07-02T08:52:55.165Z,1007.3
2017-07-02T08:53:56.546Z,1007.3
2017-07-02T08:55:18.033Z,1007.3
2017-07-02T08:56:19.412Z,1007.3
2017-07-02T08:57:40.885Z,1007.4
2017-07-02T08:58:42.263Z,1007.3
2017-07-02T09:00:03.736Z,1007.3
2017-07-02T09:01:05.115Z,1007.4
2017-07-02T09:02:26.611Z,1007.3
2017-07-02T09:03:27.988Z,1007.4
2017-07-02T09:04:49.462Z,1007.3
2017-07-02T09:05:50.836Z,1007.3
2017-07-02T09:07:12.316Z,1007.3
2017-07-02T09:08:13.689Z,1007.4
2017-07-02T09:09:35.174Z,1007.4
2017-07-02T09:10:36.554Z,1007.4
2017-07-02T09:11:58.037Z,1007.3
2017-07-02T09:12:59.414Z,1007.4
2017-07-02T09:14:20.892Z,1007.4
2017-07-02T09:15:22.269Z,1007.4
2017-07-02T09:16:43.755Z,1007.4
2017-07-02T09:17:45.133Z,1007.4
2017-07-02T09:19:06.611Z,1007.4
2017-07-02T09:20:07.987Z,1007.4
2017-07-02T09:21:29.463Z,1007.4
2017-07-02T09:22:30.847Z,1007.4
2017-07-02T09:23:52.344Z,1007.4
2017-07-02T09:24:53.723Z,1007.4
2017-07-02T09:26:15.194Z,1007.5
2017-07-02T09:27:16.574Z,1007.4
2017-07-02T09:28:38.051Z,1007.4
2017-07-02T09:29:39.429Z,1007.4
2017-07-02T09:31:00.911Z,1007.4
2017-07-02T09:32:02.290Z,1007.5
2017-07-02T09:33:23.760Z,1007.4
2017-07-02T09:34:25.139Z,1007.5
2017-07-02T09:35:46.614Z,1007.5
2017-07-02T09:36:47.993Z,1007.5
2017-07-02T09:38:09.489Z,1007.5
2017-07-02T09:39:10.868Z,1007.5
2017-07-02T09:40:32.336Z,1007.5
2017-07-02T09:41:33.710Z,1007.5
2017-07-02T09:42:55.187Z,1007.5
2017-07-02T09:43:56.560Z,1007.5
2017-07-02T09:45:18.057Z,1007.5
2017-07-02T09:46:19.433Z,1007.6
2017-07-02T09:47:40.907Z,1007.5
2017-07-02T09:48:42.282Z,1007.6
2017-07-02T09:50:03.754Z,1007.5
2017-07-02T09:51:05.128Z,1007.6
2017-07-02T09:52:26.753Z,1007.5
2017-07-02T09:53:28.131Z,1007.6
2017-07-02T09:54:49.687Z,1007.6
2017-07-02T09:55:51.062Z,1007.6
2017-07-02T09:57:12.536Z,1007.6
2017-07-02T09:58:13.913Z,1007.6
2017-07-02T09:59:35.409Z,1007.6
2017-07-02T10:00:36.787Z,1007.6
2017-07-02T10:01:58.256Z,1007.7
2017-07-02T10:02:59.634Z,1007.7
2017-07-02T10:04:21.104Z,1007.7
2017-07-02T10:05:22.490Z,1007.7
2017-07-02T10:06:43.987Z,1007.7
2017-07-02T10:07:45.365Z,1007.7
2017-07-02T10:09:06.828Z,1007.7
2017-07-02T10:10:08.207Z,1007.8
2017-07-02T10:11:29.677Z,1007.8
2017-07-02T10:12:31.056Z,1007.8
2017-07-02T10:13:52.546Z,1007.9
2017-07-02T10:14:53.924Z,1007.8
2017-07-02T10:16:15.396Z,1007.8
2017-07-02T10:17:16.772Z,1007.8
2017-07-02T10:18:38.245Z,1007.8
2017-07-02T10:19:39.619Z,1007.8
2017-07-02T10:21:01.111Z,1007.8
2017-07-02T10:22:02.490Z,1007.9
2017-07-02T10:23:23.958Z,1007.9
2017-07-02T10:24:25.335Z,1007.9
2017-07-02T10:25:46.809Z,1008.0
2017-07-02T10:26:48.187Z,1007.9
2017-07-02T10:28:09.670Z,1007.9
2017-07-02T10:29:11.049Z,1008.0
2017-07-02T10:30:32.516Z,1008.0
2017-07-02T10:31:33.895Z,1008.0
2017-07-02T10:32:55.382Z,1008.0
2017-07-02T10:33:56.760Z,1008.0
2017-07-02T10:35:18.254Z,1008.0
2017-07-02T10:36:19.631Z,1008.1
2017-07-02T10:37:41.198Z,1008.1
2017-07-02T10:38:42.574Z,1008.0
2017-07-02T10:40:04.138Z,1008.1
2017-07-02T10:41:05.514Z,1008.1
2017-07-02T10:42:27.024Z,1008.2
2017-07-02T10:43:28.400Z,1008.2
2017-07-02T10:44:49.946Z,1008.2
2017-07-02T10:45:51.321Z,1008.2
2017-07-02T10:47:12.805Z,1008.2
2017-07-02T10:48:14.181Z,1008.2
2017-07-02T10:49:35.756Z,1008.2
2017-07-02T10:50:37.135Z,1008.2
2017-07-02T10:51:58.697Z,1008.2
2017-07-02T10:53:00.073Z,1008.2
2017-07-02T10:54:21.560Z,1008.2
2017-07-02T10:55:22.940Z,1008.2
2017-07-02T10:56:44.524Z,1008.2
2017-07-02T10:57:45.899Z,1008.1
2017-07-02T10:59:07.453Z,1008.1
2017-07-02T11:00:08.829Z,1008.2
2017-07-02T11:01:30.405Z,1008.1
2017-07-02T11:02:31.787Z,1008.1
2017-07-02T11:03:53.297Z,1008.1
2017-07-02T11:04:54.676Z,1008.1
2017-07-02T11:06:16.152Z,1008.1
2017-07-02T11:07:17.536Z,1008.1
2017-07-02T11:08:39.003Z,1008.1
2017-07-02T11:09:40.380Z,1008.1
2017-07-02T11:11:01.875Z,1008.0
2017-07-02T11:12:03.256Z,1008.0
2017-07-02T11:13:24.761Z,1008.0
2017-07-02T11:14:26.138Z,1008.0
2017-07-02T11:15:47.616Z,1008.0
2017-07-02T11:16:48.992Z,1008.0
2017-07-02T11:18:10.483Z,1008.0
2017-07-02T11:19:11.877Z,1008.0
2017-07-02T11:20:33.349Z,1008.0
2017-07-02T11:21:34.727Z,1008.0
2017-07-02T11:22:56.200Z,1008.0
2017-07-02T11:23:57.578Z,1008.0
2017-07-02T11:25:19.147Z,1008.0
2017-07-02T11:26:20.528Z,1008.0
2017-07-02T11:27:42.602Z,1008.0
2017-07-02T11:28:43.982Z,1008.0
2017-07-02T11:30:05.553Z,1008.0
2017-07-02T11:31:06.936Z,1008.1
2017-07-02T11:32:28.530Z,1008.1
2017-07-02T11:33:29.941Z,1008.1
2017-07-02T11:34:51.386Z,1008.1
2017-07-02T11:35:52.765Z,1008.1
2017-07-02T11:37:14.339Z,1008.1
2017-07-02T11:38:15.719Z,1008.1
2017-07-02T11:39:37.303Z,1008.1
2017-07-02T11:40:38.681Z,1008.1
2017-07-02T11:42:00.242Z,1008.1
2017-07-02T11:43:01.623Z,1008.1
2017-07-02T11:44:23.193Z,1008.1
2017-07-02T11:45:24.571Z,1008.1
2017-07-02T11:46:46.154Z,1008.1
2017-07-02T11:47:47.535Z,1008.1
2017-07-02T11:49:09.005Z,1008.1
2017-07-02T11:50:10.381Z,1008.1
2017-07-02T11:51:31.857Z,1008.1
2017-07-02T11:52:33.234Z,1008.2
2017-07-02T11:53:54.719Z,1008.1
2017-07-02T11:54:56.098Z,1008.1
2017-07-02T11:56:17.604Z,1008.1
2017-07-02T11:57:18.988Z,1008.1
2017-07-02T11:58:40.455Z,1008.1
2017-07-02T11:59:41.835Z,1008.2
2017-07-02T12:01:03.316Z,1008.2
2017-07-02T12:02:04.696Z,1008.1
2017-07-02T12:03:26.169Z,1008.1
2017-07-02T12:04:27.973Z,1008.0
2017-07-02T12:05:49.449Z,1008.1
2017-07-02T12:06:50.830Z,1008.1
2017-07-02T12:08:12.323Z,1008.1
2017-07-02T12:09:13.701Z,1008.1
2017-07-02T12:10:35.171Z,1008.1
2017-07-02T12:11:36.549Z,1008.2
2017-07-02T12:12:58.021Z,1008.2
2017-07-02T12:13:59.398Z,1008.2
2017-07-02T12:15:20.897Z,1008.2
2017-07-02T12:16:22.272Z,1008.2
2017-07-02T12:17:43.746Z,1008.3
2017-07-02T12:18:45.121Z,1008.2
2017-07-02T12:20:06.596Z,1008.2
2017-07-02T12:21:07.977Z,1008.2
2017-07-02T12:22:29.475Z,1008.2
2017-07-02T12:23:30.850Z,1008.2
2017-07-02T12:24:52.345Z,1008.2
2017-07-02T12:25:53.724Z,1008.2
2017-07-02T12:27:15.270Z,1008.2
2017-07-02T12:28:16.648Z,1008.2
2017-07-02T12:29:38.132Z,1008.2
2017-07-02T12:30:39.508Z,1008.2
2017-07-02T12:32:00.985Z,1008.2
2017-07-02T12:33:02.362Z,1008.2
2017-07-02T12:34:23.840Z,1008.2
2017-07-02T12:35:25.215Z,1008.3
2017-07-02T12:36:46.699Z,1008.3
2017-07-02T12:37:48.080Z,1008.3
2017-07-02T12:39:09.552Z,1008.2
2017-07-02T12:40:10.927Z,1008.2
2017-07-02T12:41:32.401Z,1008.2
2017-07-02T12:42:33.780Z,1008.2
2017-07-02T12:43:55.368Z,1008.2
2017-07-02T12:44:56.745Z,1008.2
2017-07-02T12:46:18.280Z,1008.2
2017-07-02T12:47:19.657Z,1008.2
2017-07-02T12:48:45.801Z,1008.2
2017-07-02T12:49:51.669Z,1008.2
2017-07-02T12:51:13.004Z,1008.2
2017-07-02T12:52:14.385Z,1008.2
2017-07-02T12:53:35.859Z,1008.2
2017-07-02T12:54:37.238Z,1008.2
2017-07-02T12:55:58.724Z,1008.1
2017-07-02T12:57:00.129Z,1008.1
2017-07-02T12:58:21.634Z,1008.2
2017-07-02T12:59:23.011Z,1008.2
2017-07-02T13:00:44.482Z,1008.2
2017-07-02T13:01:45.868Z,1008.2
2017-07-02T13:03:07.338Z,1008.2
2017-07-02T13:04:08.714Z,1008.3
2017-07-02T13:05:30.214Z,1008.2
2017-07-02T13:06:31.590Z,1008.3
2017-07-02T13:07:53.061Z,1008.2
2017-07-02T13:08:54.439Z,1008.2
2017-07-02T13:10:15.917Z,1008.2
2017-07-02T13:11:17.293Z,1008.2
2017-07-02T13:12:38.792Z,1008.3
2017-07-02T13:13:40.170Z,1008.3
2017-07-02T13:15:01.642Z,1008.3
2017-07-02T13:16:03.017Z,1008.3
2017-07-02T13:17:24.492Z,1008.3
2017-07-02T13:18:25.864Z,1008.3
2017-07-02T13:19:47.351Z,1008.2
2017-07-02T13:20:48.730Z,1008.3
2017-07-02T13:22:10.199Z,1008.3
2017-07-02T13:23:11.577Z,1008.3
2017-07-02T13:24:33.050Z,1008.3
2017-07-02T13:25:34.425Z,1008.3
2017-07-02T13:26:55.922Z,1008.3
2017-07-02T13:27:57.302Z,1008.3
2017-07-02T13:29:18.781Z,1008.3
2017-07-02T13:30:20.160Z,1008.3
2017-07-02T13:31:41.632Z,1008.3
2017-07-02T13:32:43.012Z,1008.4
2017-07-02T13:34:04.507Z,1008.3
2017-07-02T13:35:05.883Z,1008.3
2017-07-02T13:36:27.356Z,1008.3
2017-07-02T13:37:28.732Z,1008.4
2017-07-02T13:38:50.211Z,1008.4
2017-07-02T13:39:51.588Z,1008.4
2017-07-02T13:41:13.071Z,1008.5
2017-07-02T13:42:14.451Z,1008.4
2017-07-02T13:43:35.922Z,1008.4
2017-07-02T13:44:37.295Z,1008.4
2017-07-02T13:45:58.770Z,1008.5
2017-07-02T13:47:00.147Z,1008.5
2017-07-02T13:48:21.641Z,1008.5
2017-07-02T13:49:23.025Z,1008.5
2017-07-02T13:50:44.505Z,1008.5
2017-07-02T13:51:45.884Z,1008.5
2017-07-02T13:53:07.358Z,1008.6
2017-07-02T13:54:08.735Z,1008.5
2017-07-02T13:55:30.241Z,1008.6
2017-07-02T13:56:31.620Z,1008.6
2017-07-02T13:57:53.092Z,1008.5
2017-07-02T13:58:54.464Z,1008.6
2017-07-02T14:00:15.946Z,1008.5
2017-07-02T14:01:17.322Z,1008.6
2017-07-02T14:02:38.808Z,1008.6
2017-07-02T14:03:40.184Z,1008.6
2017-07-02T14:05:01.656Z,1008.6
2017-07-02T14:06:03.033Z,1008.5
2017-07-02T14:07:24.507Z,1008.6
2017-07-02T14:08:25.883Z,1008.6
2017-07-02T14:09:47.380Z,1008.6
2017-07-02T14:10:48.758Z,1008.6
2017-07-02T14:12:10.226Z,1008.6
2017-07-02T14:13:11.605Z,1008.6
2017-07-02T14:14:33.083Z,1008.6
2017-07-02T14:15:34.461Z,1008.6
2017-07-02T14:16:55.946Z,1008.6
2017-07-02T14:17:57.322Z,1008.7
2017-07-02T14:19:18.791Z,1008.7
2017-07-02T14:20:20.170Z,1008.6
2017-07-02T14:21:41.647Z,1008.7
2017-07-02T14:22:43.024Z,1008.7
2017-07-02T14:24:04.507Z,1008.7
2017-07-02T14:25:05.888Z,1008.7
2017-07-02T14:26:27.360Z,1008.8
2017-07-02T14:27:28.736Z,1008.7
2017-07-02T14:28:50.209Z,1008.7
2017-07-02T14:29:51.584Z,1008.8
2017-07-02T14:31:13.070Z,1008.7
2017-07-02T14:32:14.454Z,1008.7
2017-07-02T14:33:35.926Z,1008.8
2017-07-02T14:34:37.308Z,1008.8
2017-07-02T14:35:58.776Z,1008.8
2017-07-02T14:37:00.153Z,1008.8
2017-07-02T14:38:21.648Z,1008.8
2017-07-02T14:39:23.025Z,1008.8
2017-07-02T14:40:44.495Z,1008.9
2017-07-02T14:41:45.871Z,1008.7
2017-07-02T14:43:07.356Z,1008.9
2017-07-02T14:44:08.736Z,1008.8
2017-07-02T14:45:30.227Z,1008.9
2017-07-02T14:46:31.608Z,1008.9
2017-07-02T14:47:53.080Z,1008.9
2017-07-02T14:48:54.455Z,1008.9
2017-07-02T14:50:15.929Z,1008.9
2017-07-02T14:51:17.304Z,1008.9